createdAt,value
2022-08-21T00:09:54.588Z,16.8
2022-08-21T00:19:55.663Z,16.8
2022-08-21T00:29:55.735Z,16.7
2022-08-21T00:39:56.289Z,16.7
2022-08-21T00:49:56.329Z,16.6
2022-08-21T00:59:57.241Z,16.5
2022-08-21T01:09:57.650Z,16.6
2022-08-21T01:10:03.191Z,16.6
2022-08-21T01:20:04.109Z,16.7
2022-08-21T01:30:05.454Z,16.7
2022-08-21T01:40:05.288Z,16.7
2022-08-21T01:50:06.156Z,16.5
2022-08-21T02:00:06.346Z,16.4
2022-08-21T02:10:06.838Z,16.2
2022-08-21T02:20:07.068Z,16.1
2022-08-21T02:30:07.883Z,16
2022-08-21T02:40:08.551Z,15.9
2022-08-21T02:50:08.876Z,15.9
2022-08-21T03:00:09.689Z,15.7
2022-08-21T03:10:10.123Z,15.6
2022-08-21T03:20:10.404Z,15.5
2022-08-21T03:30:10.691Z,15.4
2022-08-21T03:40:11.131Z,15.3
2022-08-21T03:50:11.160Z,15.2
2022-08-21T04:00:11.206Z,15.2
2022-08-21T04:10:11.803Z,15.1
2022-08-21T04:20:12.081Z,15
2022-08-21T04:40:13.285Z,15
2022-08-21T05:00:14.298Z,14.9
2022-08-21T05:20:14.939Z,15.3
2022-08-21T05:30:15.095Z,15.4
2022-08-21T05:40:22.063Z,15.6
2022-08-21T05:50:16.364Z,15.7
2022-08-21T06:00:16.600Z,16
2022-08-21T06:10:23.985Z,16.3
2022-08-21T06:20:17.612Z,16.6
2022-08-21T06:30:17.923Z,17
2022-08-21T06:40:18.976Z,17.4
2022-08-21T06:50:19.652Z,17.8
2022-08-21T07:00:20.185Z,18.4
2022-08-21T07:10:22.091Z,18.7
2022-08-21T07:20:21.495Z,19.1
2022-08-21T07:30:21.764Z,19.5
2022-08-21T07:50:23.187Z,20
2022-08-21T08:00:24.185Z,20.1
2022-08-21T08:10:25.122Z,20.3
2022-08-21T08:20:25.759Z,20.5
2022-08-21T08:30:30.006Z,20.8
2022-08-21T09:00:28.529Z,21.5
2022-08-21T09:10:29.246Z,21.5
2022-08-21T09:30:31.119Z,22.1
2022-08-21T09:50:32.057Z,22.6
2022-08-21T10:00:32.216Z,22.8
2022-08-21T10:10:39.679Z,23.2
2022-08-21T10:20:32.905Z,23.4
2022-08-21T10:30:32.989Z,23.4
2022-08-21T10:40:33.805Z,23.8
2022-08-21T10:50:34.239Z,23.6
2022-08-21T11:00:35.133Z,24
2022-08-21T11:10:35.468Z,24.6
2022-08-21T11:20:36.467Z,24.8
2022-08-21T11:30:37.286Z,24.7
2022-08-21T11:40:38.278Z,24.4
2022-08-21T11:50:39.114Z,24.3
2022-08-21T12:00:39.389Z,24.3
2022-08-21T12:10:40.082Z,24.5
2022-08-21T12:30:40.983Z,25.4
2022-08-21T13:10:43.215Z,25.5
2022-08-21T13:20:43.587Z,25.8
2022-08-21T13:30:44.024Z,25.3
2022-08-21T13:40:51.651Z,25.1
2022-08-21T13:50:45.444Z,25
2022-08-21T14:00:45.571Z,24.8
2022-08-21T14:10:53.821Z,24.5
2022-08-21T14:20:46.844Z,24.6
2022-08-21T14:40:48.245Z,24.2
2022-08-21T14:50:49.272Z,24.2
2022-08-21T15:00:49.918Z,24.3
2022-08-21T15:20:51.585Z,24.5
2022-08-21T15:40:52.650Z,24.6
2022-08-21T15:50:53.116Z,24.5
2022-08-21T16:00:53.544Z,24.2
2022-08-21T16:10:54.066Z,24.6
2022-08-21T16:30:54.953Z,24.3
2022-08-21T16:40:55.342Z,24.1
2022-08-21T17:00:56.551Z,23.8
2022-08-21T17:10:57.224Z,23.8
2022-08-21T17:20:58.059Z,23.5
2022-08-21T17:30:59.037Z,23.3
2022-08-21T17:40:59.683Z,23.1
2022-08-21T17:51:00.380Z,22.9
2022-08-21T18:01:00.802Z,22.6
2022-08-21T18:11:00.937Z,22.3
2022-08-21T18:41:01.931Z,21.5
2022-08-21T18:51:02.470Z,21.2
2022-08-21T19:21:04.155Z,20.2
2022-08-21T19:31:04.155Z,20
2022-08-21T20:21:06.942Z,19.1
2022-08-21T20:41:18.056Z,19
2022-08-21T20:51:08.994Z,18.9
2022-08-21T21:01:09.422Z,19
2022-08-21T21:11:09.611Z,19.1
2022-08-21T21:21:10.558Z,19
2022-08-21T21:31:10.826Z,18.9
2022-08-21T21:41:11.384Z,18.8
2022-08-21T21:51:12.135Z,18.6
2022-08-21T22:11:24.034Z,18.3
2022-08-21T22:21:12.897Z,18.2
2022-08-21T22:31:14.072Z,18.2
2022-08-21T22:51:15.486Z,18
2022-08-21T23:01:16.026Z,17.8
2022-08-21T23:11:17.179Z,17.8
2022-08-21T23:41:17.242Z,17.5
